LPPS

Details ICAO LPPS (PXO)
Name Porto Santo
Region Portugal
Timezone Atlantic/Madeira (UTC+1.0)
Plans Departing 128
Arriving 117
Stats Elevation 340 ft / 104 m (AMSL)
Location 33.073300° -16.349800°
Runways 1
Magnetic Variation 4.715° W
Sunrise 2018-10-17 07:12:10 UTC / 2018-10-17 08:12:10 Local
Sunset 2018-10-17 18:31:38 UTC / 2018-10-17 19:31:38 Local
Advertisement - Login to hide

Runways

ID Width Length Bearing (true/mag) Surface Threshold Overrun Markings Lighting
18 140 ft / 43 m 9,856 ft / 3,004 m 178.12° / 182.83° ASPHALT 0 ft / 0 m 0 ft / 0 m PREC-APP EDGE THRESHOLD SALS
36 140 ft / 43 m 9,856 ft / 3,004 m 358.12° / 2.83° ASPHALT 0 ft / 0 m 0 ft / 0 m PREC-APP EDGE THRESHOLD SALS

Map

Weather


0- 5 10 15 20 25 30 35+ Temperature / °C

Clouds and Precipitation
Forecast for 2018-10-17 12:00 UTC. Updated 28 minutes ago

Ground ~20,000 ft ~40,000 ft Winds

METAR

LPPS 171000Z 02010KT 9999 SCT014 BKN030 21/15 Q1023

TAF

TAF LPPS 170500Z 1706/1812 01010KT 9999 SCT015 BKN030 TEMPO 1706/1812 BKN015 PROB30 TEMPO 1716/1722 5000 -RADZ BR SCT006 BKN012 BECMG 1719/1722 01017KT TEMPO 1722/1812 01020G33KT

Frequencies

Tower 118.40 MHz Porto Santo Tower
Approach 119.60 MHz Madeira Approach
Warning: Do not use this data for real-world aviation or navigation. No guarantee of current accuracy is given.